sensor_id;sensor_type;location;lat;lon;timestamp;pressure;altitude;pressure_sealevel;temperature
69007;BMP180;56061;51.748;19.620;2022-11-20T00:01:27;98651.60;;;-2.50
69007;BMP180;56061;51.748;19.620;2022-11-20T00:03:56;98651.00;;;-2.40
69007;BMP180;56061;51.748;19.620;2022-11-20T00:06:26;98653.60;;;-2.34
69007;BMP180;56061;51.748;19.620;2022-11-20T00:08:57;98644.60;;;-2.30
69007;BMP180;56061;51.748;19.620;2022-11-20T00:11:26;98646.60;;;-2.30
69007;BMP180;56061;51.748;19.620;2022-11-20T00:13:56;98649.40;;;-2.28
69007;BMP180;56061;51.748;19.620;2022-11-20T00:16:26;98652.00;;;-2.28
69007;BMP180;56061;51.748;19.620;2022-11-20T00:18:53;98648.20;;;-2.30
69007;BMP180;56061;51.748;19.620;2022-11-20T00:21:26;98649.20;;;-2.30
69007;BMP180;56061;51.748;19.620;2022-11-20T00:23:56;98650.20;;;-2.30
69007;BMP180;56061;51.748;19.620;2022-11-20T00:26:25;98649.20;;;-2.30
69007;BMP180;56061;51.748;19.620;2022-11-20T00:28:57;98652.60;;;-2.30
69007;BMP180;56061;51.748;19.620;2022-11-20T00:31:25;98648.40;;;-2.30
69007;BMP180;56061;51.748;19.620;2022-11-20T00:33:52;98650.00;;;-2.30
69007;BMP180;56061;51.748;19.620;2022-11-20T00:36:22;98641.40;;;-2.30
69007;BMP180;56061;51.748;19.620;2022-11-20T00:38:54;98642.60;;;-2.30
69007;BMP180;56061;51.748;19.620;2022-11-20T00:41:21;98641.60;;;-2.30
69007;BMP180;56061;51.748;19.620;2022-11-20T00:43:48;98640.80;;;-2.30
69007;BMP180;56061;51.748;19.620;2022-11-20T00:46:18;98641.60;;;-2.30
69007;BMP180;56061;51.748;19.620;2022-11-20T00:48:46;98634.40;;;-2.26
69007;BMP180;56061;51.748;19.620;2022-11-20T00:51:16;98636.00;;;-2.24
69007;BMP180;56061;51.748;19.620;2022-11-20T00:53:43;98637.80;;;-2.24
69007;BMP180;56061;51.748;19.620;2022-11-20T00:56:16;98634.60;;;-2.20
69007;BMP180;56061;51.748;19.620;2022-11-20T00:58:45;98630.60;;;-2.10
69007;BMP180;56061;51.748;19.620;2022-11-20T01:01:25;98634.00;;;-2.10
69007;BMP180;56061;51.748;19.620;2022-11-20T01:03:55;98632.20;;;-2.10
69007;BMP180;56061;51.748;19.620;2022-11-20T01:06:36;98632.20;;;-2.10
69007;BMP180;56061;51.748;19.620;2022-11-20T01:09:07;98638.20;;;-2.10
69007;BMP180;56061;51.748;19.620;2022-11-20T01:11:38;98639.00;;;-2.10
69007;BMP180;56061;51.748;19.620;2022-11-20T01:14:09;98641.20;;;-2.08
69007;BMP180;56061;51.748;19.620;2022-11-20T01:16:40;98643.40;;;-2.10
69007;BMP180;56061;51.748;19.620;2022-11-20T01:19:15;98635.60;;;-2.08
69007;BMP180;56061;51.748;19.620;2022-11-20T01:21:47;98641.80;;;-2.08
69007;BMP180;56061;51.748;19.620;2022-11-20T01:24:17;98633.60;;;-2.08
69007;BMP180;56061;51.748;19.620;2022-11-20T01:26:47;98630.20;;;-2.06
69007;BMP180;56061;51.748;19.620;2022-11-20T01:29:22;98634.60;;;-2.10
69007;BMP180;56061;51.748;19.620;2022-11-20T01:31:49;98625.40;;;-2.10
69007;BMP180;56061;51.748;19.620;2022-11-20T01:34:18;98621.60;;;-2.12
69007;BMP180;56061;51.748;19.620;2022-11-20T01:36:45;98618.00;;;-2.20
69007;BMP180;56061;51.748;19.620;2022-11-20T01:39:16;98623.40;;;-2.20
69007;BMP180;56061;51.748;19.620;2022-11-20T01:41:45;98615.00;;;-2.30
69007;BMP180;56061;51.748;19.620;2022-11-20T01:44:58;98618.40;;;-2.30
69007;BMP180;56061;51.748;19.620;2022-11-20T01:47:32;98620.20;;;-2.30
69007;BMP180;56061;51.748;19.620;2022-11-20T01:50:25;98625.20;;;-2.32
69007;BMP180;56061;51.748;19.620;2022-11-20T01:52:59;98621.40;;;-2.30
69007;BMP180;56061;51.748;19.620;2022-11-20T01:55:36;98628.00;;;-2.30
69007;BMP180;56061;51.748;19.620;2022-11-20T01:58:04;98626.60;;;-2.30
69007;BMP180;56061;51.748;19.620;2022-11-20T02:00:31;98631.40;;;-2.30
69007;BMP180;56061;51.748;19.620;2022-11-20T02:03:03;98629.80;;;-2.30
69007;BMP180;56061;51.748;19.620;2022-11-20T02:05:38;98631.20;;;-2.30
69007;BMP180;56061;51.748;19.620;2022-11-20T02:08:07;98634.80;;;-2.30
69007;BMP180;56061;51.748;19.620;2022-11-20T02:13:21;98626.20;;;-2.34
69007;BMP180;56061;51.748;19.620;2022-11-20T02:16:21;98623.40;;;-2.40
69007;BMP180;56061;51.748;19.620;2022-11-20T02:18:49;98620.80;;;-2.40
69007;BMP180;56061;51.748;19.620;2022-11-20T02:24:16;98619.20;;;-2.40
69007;BMP180;56061;51.748;19.620;2022-11-20T02:26:55;98622.80;;;-2.48
69007;BMP180;56061;51.748;19.620;2022-11-20T02:29:35;98619.40;;;-2.50
69007;BMP180;56061;51.748;19.620;2022-11-20T02:32:04;98618.40;;;-2.50
69007;BMP180;56061;51.748;19.620;2022-11-20T02:34:31;98610.00;;;-2.40
69007;BMP180;56061;51.748;19.620;2022-11-20T02:36:58;98606.60;;;-2.40
69007;BMP180;56061;51.748;19.620;2022-11-20T02:39:28;98603.00;;;-2.40
69007;BMP180;56061;51.748;19.620;2022-11-20T02:41:56;98601.80;;;-2.36
69007;BMP180;56061;51.748;19.620;2022-11-20T02:44:23;98599.40;;;-2.30
69007;BMP180;56061;51.748;19.620;2022-11-20T02:46:49;98602.40;;;-2.30
69007;BMP180;56061;51.748;19.620;2022-11-20T02:49:16;98604.00;;;-2.30
69007;BMP180;56061;51.748;19.620;2022-11-20T02:51:43;98600.40;;;-2.30
69007;BMP180;56061;51.748;19.620;2022-11-20T02:54:10;98601.00;;;-2.30
69007;BMP180;56061;51.748;19.620;2022-11-20T02:56:38;98602.60;;;-2.30
69007;BMP180;56061;51.748;19.620;2022-11-20T02:59:06;98603.60;;;-2.30
69007;BMP180;56061;51.748;19.620;2022-11-20T03:01:32;98601.00;;;-2.28
69007;BMP180;56061;51.748;19.620;2022-11-20T03:03:59;98600.60;;;-2.30
69007;BMP180;56061;51.748;19.620;2022-11-20T03:06:25;98599.40;;;-2.30
69007;BMP180;56061;51.748;19.620;2022-11-20T03:08:52;98598.40;;;-2.30
69007;BMP180;56061;51.748;19.620;2022-11-20T03:11:18;98590.40;;;-2.32
69007;BMP180;56061;51.748;19.620;2022-11-20T03:13:45;98590.20;;;-2.40
69007;BMP180;56061;51.748;19.620;2022-11-20T03:16:16;98591.60;;;-2.40
69007;BMP180;56061;51.748;19.620;2022-11-20T03:18:43;98591.40;;;-2.40
69007;BMP180;56061;51.748;19.620;2022-11-20T03:21:12;98595.80;;;-2.40
69007;BMP180;56061;51.748;19.620;2022-11-20T03:23:40;98599.40;;;-2.50
69007;BMP180;56061;51.748;19.620;2022-11-20T03:26:09;98602.20;;;-2.52
69007;BMP180;56061;51.748;19.620;2022-11-20T03:28:35;98594.60;;;-2.60
69007;BMP180;56061;51.748;19.620;2022-11-20T03:31:12;98597.00;;;-2.60
69007;BMP180;56061;51.748;19.620;2022-11-20T03:33:41;98595.00;;;-2.70
69007;BMP180;56061;51.748;19.620;2022-11-20T03:36:12;98590.40;;;-2.80
69007;BMP180;56061;51.748;19.620;2022-11-20T03:38:39;98586.20;;;-2.90
69007;BMP180;56061;51.748;19.620;2022-11-20T03:41:12;98596.40;;;-2.90
69007;BMP180;56061;51.748;19.620;2022-11-20T03:43:39;98595.20;;;-3.00
69007;BMP180;56061;51.748;19.620;2022-11-20T03:46:07;98601.00;;;-3.10
69007;BMP180;56061;51.748;19.620;2022-11-20T03:48:33;98599.40;;;-3.20
69007;BMP180;56061;51.748;19.620;2022-11-20T03:51:25;98601.20;;;-3.30
69007;BMP180;56061;51.748;19.620;2022-11-20T03:53:57;98606.20;;;-3.40
69007;BMP180;56061;51.748;19.620;2022-11-20T03:56:30;98606.00;;;-3.50
69007;BMP180;56061;51.748;19.620;2022-11-20T03:58:57;98610.40;;;-3.60
69007;BMP180;56061;51.748;19.620;2022-11-20T04:01:34;98604.00;;;-3.60
69007;BMP180;56061;51.748;19.620;2022-11-20T04:04:02;98608.60;;;-3.74
69007;BMP180;56061;51.748;19.620;2022-11-20T04:06:34;98609.60;;;-3.80
69007;BMP180;56061;51.748;19.620;2022-11-20T04:09:02;98609.00;;;-3.90
69007;BMP180;56061;51.748;19.620;2022-11-20T04:11:31;98603.00;;;-3.96
69007;BMP180;56061;51.748;19.620;2022-11-20T04:14:01;98605.80;;;-4.00
69007;BMP180;56061;51.748;19.620;2022-11-20T04:16:35;98600.60;;;-4.00
69007;BMP180;56061;51.748;19.620;2022-11-20T04:19:10;98605.80;;;-4.00
69007;BMP180;56061;51.748;19.620;2022-11-20T04:21:37;98608.80;;;-4.04
69007;BMP180;56061;51.748;19.620;2022-11-20T04:24:04;98609.00;;;-4.10
69007;BMP180;56061;51.748;19.620;2022-11-20T04:26:31;98605.60;;;-4.10
69007;BMP180;56061;51.748;19.620;2022-11-20T04:28:58;98605.40;;;-4.20
69007;BMP180;56061;51.748;19.620;2022-11-20T04:31:29;98601.00;;;-4.20
69007;BMP180;56061;51.748;19.620;2022-11-20T04:34:01;98597.40;;;-4.38
69007;BMP180;56061;51.748;19.620;2022-11-20T04:36:29;98594.60;;;-4.44
69007;BMP180;56061;51.748;19.620;2022-11-20T04:38:59;98593.40;;;-4.50
69007;BMP180;56061;51.748;19.620;2022-11-20T04:41:33;98593.20;;;-4.60
69007;BMP180;56061;51.748;19.620;2022-11-20T04:44:02;98603.60;;;-4.60
69007;BMP180;56061;51.748;19.620;2022-11-20T04:46:39;98602.80;;;-4.70
69007;BMP180;56061;51.748;19.620;2022-11-20T04:49:07;98603.00;;;-4.78
69007;BMP180;56061;51.748;19.620;2022-11-20T04:51:34;98597.60;;;-4.80
69007;BMP180;56061;51.748;19.620;2022-11-20T04:54:01;98598.60;;;-4.80
69007;BMP180;56061;51.748;19.620;2022-11-20T04:56:27;98600.40;;;-4.80
69007;BMP180;56061;51.748;19.620;2022-11-20T04:58:54;98594.60;;;-4.90
69007;BMP180;56061;51.748;19.620;2022-11-20T05:01:23;98595.60;;;-4.90
69007;BMP180;56061;51.748;19.620;2022-11-20T05:03:51;98592.40;;;-5.00
69007;BMP180;56061;51.748;19.620;2022-11-20T05:06:20;98594.80;;;-5.00
69007;BMP180;56061;51.748;19.620;2022-11-20T05:08:47;98594.00;;;-5.02
69007;BMP180;56061;51.748;19.620;2022-11-20T05:11:18;98585.00;;;-5.10
69007;BMP180;56061;51.748;19.620;2022-11-20T05:13:45;98589.60;;;-5.10
69007;BMP180;56061;51.748;19.620;2022-11-20T05:16:16;98585.00;;;-5.10
69007;BMP180;56061;51.748;19.620;2022-11-20T05:18:43;98590.00;;;-5.10
69007;BMP180;56061;51.748;19.620;2022-11-20T05:21:11;98588.00;;;-5.10
69007;BMP180;56061;51.748;19.620;2022-11-20T05:23:38;98592.80;;;-5.10
69007;BMP180;56061;51.748;19.620;2022-11-20T05:26:08;98593.80;;;-5.10
69007;BMP180;56061;51.748;19.620;2022-11-20T05:28:37;98598.40;;;-5.02
69007;BMP180;56061;51.748;19.620;2022-11-20T05:31:14;98597.40;;;-5.00
69007;BMP180;56061;51.748;19.620;2022-11-20T05:33:43;98596.40;;;-5.00
69007;BMP180;56061;51.748;19.620;2022-11-20T05:36:12;98595.60;;;-4.90
69007;BMP180;56061;51.748;19.620;2022-11-20T05:38:41;98588.40;;;-4.90
69007;BMP180;56061;51.748;19.620;2022-11-20T05:41:12;98581.00;;;-4.80
69007;BMP180;56061;51.748;19.620;2022-11-20T05:43:43;98585.00;;;-4.80
69007;BMP180;56061;51.748;19.620;2022-11-20T05:46:12;98584.40;;;-4.86
69007;BMP180;56061;51.748;19.620;2022-11-20T05:48:41;98586.20;;;-4.90
69007;BMP180;56061;51.748;19.620;2022-11-20T05:51:13;98582.00;;;-4.90
69007;BMP180;56061;51.748;19.620;2022-11-20T05:53:40;98579.80;;;-4.90
69007;BMP180;56061;51.748;19.620;2022-11-20T05:56:18;98585.40;;;-4.90
69007;BMP180;56061;51.748;19.620;2022-11-20T05:58:46;98585.20;;;-4.90
69007;BMP180;56061;51.748;19.620;2022-11-20T06:01:23;98584.00;;;-4.90
69007;BMP180;56061;51.748;19.620;2022-11-20T06:03:52;98583.60;;;-4.90
69007;BMP180;56061;51.748;19.620;2022-11-20T06:06:20;98583.20;;;-4.98
69007;BMP180;56061;51.748;19.620;2022-11-20T06:08:47;98584.20;;;-5.00
69007;BMP180;56061;51.748;19.620;2022-11-20T06:11:15;98570.20;;;-5.00
69007;BMP180;56061;51.748;19.620;2022-11-20T06:13:42;98568.40;;;-5.00
69007;BMP180;56061;51.748;19.620;2022-11-20T06:16:10;98571.60;;;-5.04
69007;BMP180;56061;51.748;19.620;2022-11-20T06:18:37;98568.80;;;-5.10
69007;BMP180;56061;51.748;19.620;2022-11-20T06:21:13;98566.00;;;-5.04
69007;BMP180;56061;51.748;19.620;2022-11-20T06:23:41;98565.80;;;-5.00
69007;BMP180;56061;51.748;19.620;2022-11-20T06:26:10;98575.00;;;-5.00
69007;BMP180;56061;51.748;19.620;2022-11-20T06:28:38;98574.00;;;-5.00
69007;BMP180;56061;51.748;19.620;2022-11-20T06:31:06;98572.40;;;-4.90
69007;BMP180;56061;51.748;19.620;2022-11-20T06:33:33;98572.80;;;-4.80
69007;BMP180;56061;51.748;19.620;2022-11-20T06:36:01;98572.40;;;-4.72
69007;BMP180;56061;51.748;19.620;2022-11-20T06:38:34;98569.00;;;-4.70
69007;BMP180;56061;51.748;19.620;2022-11-20T06:41:00;98571.40;;;-4.60
69007;BMP180;56061;51.748;19.620;2022-11-20T06:43:28;98568.80;;;-4.50
69007;BMP180;56061;51.748;19.620;2022-11-20T06:45:57;98564.80;;;-4.40
69007;BMP180;56061;51.748;19.620;2022-11-20T06:48:26;98563.60;;;-4.38
69007;BMP180;56061;51.748;19.620;2022-11-20T06:50:53;98563.40;;;-4.30
69007;BMP180;56061;51.748;19.620;2022-11-20T06:53:21;98568.20;;;-4.20
69007;BMP180;56061;51.748;19.620;2022-11-20T06:55:49;98560.80;;;-4.10
69007;BMP180;56061;51.748;19.620;2022-11-20T06:58:17;98562.60;;;-4.00
69007;BMP180;56061;51.748;19.620;2022-11-20T07:00:44;98559.40;;;-3.98
69007;BMP180;56061;51.748;19.620;2022-11-20T07:03:12;98562.80;;;-3.90
69007;BMP180;56061;51.748;19.620;2022-11-20T07:05:38;98557.20;;;-3.80
69007;BMP180;56061;51.748;19.620;2022-11-20T07:08:06;98552.60;;;-3.70
69007;BMP180;56061;51.748;19.620;2022-11-20T07:10:33;98548.00;;;-3.60
69007;BMP180;56061;51.748;19.620;2022-11-20T07:12:59;98542.60;;;-3.60
69007;BMP180;56061;51.748;19.620;2022-11-20T07:15:26;98544.00;;;-3.50
69007;BMP180;56061;51.748;19.620;2022-11-20T07:17:53;98540.80;;;-3.50
69007;BMP180;56061;51.748;19.620;2022-11-20T07:20:19;98540.40;;;-3.40
69007;BMP180;56061;51.748;19.620;2022-11-20T07:22:47;98536.40;;;-3.40
69007;BMP180;56061;51.748;19.620;2022-11-20T07:25:19;98534.40;;;-3.30
69007;BMP180;56061;51.748;19.620;2022-11-20T07:27:45;98529.80;;;-3.20
69007;BMP180;56061;51.748;19.620;2022-11-20T07:30:12;98536.80;;;-3.10
69007;BMP180;56061;51.748;19.620;2022-11-20T07:32:40;98525.60;;;-3.00
69007;BMP180;56061;51.748;19.620;2022-11-20T07:35:07;98523.80;;;-2.90
69007;BMP180;56061;51.748;19.620;2022-11-20T07:37:35;98518.60;;;-2.70
69007;BMP180;56061;51.748;19.620;2022-11-20T07:40:03;98510.60;;;-2.60
69007;BMP180;56061;51.748;19.620;2022-11-20T07:42:30;98515.20;;;-2.44
69007;BMP180;56061;51.748;19.620;2022-11-20T07:44:56;98513.00;;;-2.32
69007;BMP180;56061;51.748;19.620;2022-11-20T07:47:22;98511.00;;;-2.30
69007;BMP180;56061;51.748;19.620;2022-11-20T07:49:49;98510.60;;;-2.20
69007;BMP180;56061;51.748;19.620;2022-11-20T07:52:16;98516.20;;;-2.10
69007;BMP180;56061;51.748;19.620;2022-11-20T07:54:43;98512.20;;;-2.00
69007;BMP180;56061;51.748;19.620;2022-11-20T07:57:09;98508.00;;;-1.90
69007;BMP180;56061;51.748;19.620;2022-11-20T07:59:36;98510.00;;;-1.90
69007;BMP180;56061;51.748;19.620;2022-11-20T08:02:05;98505.60;;;-1.80
69007;BMP180;56061;51.748;19.620;2022-11-20T08:04:32;98508.80;;;-1.72
69007;BMP180;56061;51.748;19.620;2022-11-20T08:06:59;98504.80;;;-1.70
69007;BMP180;56061;51.748;19.620;2022-11-20T08:09:25;98511.80;;;-1.70
69007;BMP180;56061;51.748;19.620;2022-11-20T08:11:52;98508.00;;;-1.60
69007;BMP180;56061;51.748;19.620;2022-11-20T08:14:38;98502.40;;;-1.60
69007;BMP180;56061;51.748;19.620;2022-11-20T08:17:04;98496.80;;;-1.52
69007;BMP180;56061;51.748;19.620;2022-11-20T08:19:31;98497.40;;;-1.50
69007;BMP180;56061;51.748;19.620;2022-11-20T08:21:57;98499.80;;;-1.50
69007;BMP180;56061;51.748;19.620;2022-11-20T08:24:24;98491.80;;;-1.46
69007;BMP180;56061;51.748;19.620;2022-11-20T08:26:52;98489.00;;;-1.40
69007;BMP180;56061;51.748;19.620;2022-11-20T08:29:19;98485.40;;;-1.40
69007;BMP180;56061;51.748;19.620;2022-11-20T08:31:46;98485.20;;;-1.38
69007;BMP180;56061;51.748;19.620;2022-11-20T08:34:12;98480.80;;;-1.30
69007;BMP180;56061;51.748;19.620;2022-11-20T08:36:44;98481.40;;;-1.20
69007;BMP180;56061;51.748;19.620;2022-11-20T08:39:12;98476.20;;;-1.20
69007;BMP180;56061;51.748;19.620;2022-11-20T08:41:39;98474.40;;;-1.10
69007;BMP180;56061;51.748;19.620;2022-11-20T08:44:07;98476.60;;;-1.10
69007;BMP180;56061;51.748;19.620;2022-11-20T08:46:38;98473.60;;;-1.10
69007;BMP180;56061;51.748;19.620;2022-11-20T08:49:08;98470.40;;;-1.10
69007;BMP180;56061;51.748;19.620;2022-11-20T08:51:36;98468.20;;;-1.06
69007;BMP180;56061;51.748;19.620;2022-11-20T08:54:04;98472.60;;;-1.04
69007;BMP180;56061;51.748;19.620;2022-11-20T08:56:32;98473.40;;;-1.00
69007;BMP180;56061;51.748;19.620;2022-11-20T08:58:58;98478.60;;;-1.00
69007;BMP180;56061;51.748;19.620;2022-11-20T09:01:48;98477.40;;;-1.00
69007;BMP180;56061;51.748;19.620;2022-11-20T09:04:15;98474.40;;;-1.00
69007;BMP180;56061;51.748;19.620;2022-11-20T09:06:41;98468.80;;;-0.92
69007;BMP180;56061;51.748;19.620;2022-11-20T09:09:08;98460.00;;;-0.90
69007;BMP180;56061;51.748;19.620;2022-11-20T09:11:35;98454.00;;;-0.90
69007;BMP180;56061;51.748;19.620;2022-11-20T09:14:02;98446.80;;;-0.90
69007;BMP180;56061;51.748;19.620;2022-11-20T09:16:31;98454.20;;;-0.80
69007;BMP180;56061;51.748;19.620;2022-11-20T09:18:58;98454.40;;;-0.80
69007;BMP180;56061;51.748;19.620;2022-11-20T09:21:44;98454.20;;;-0.70
69007;BMP180;56061;51.748;19.620;2022-11-20T09:24:11;98447.40;;;-0.62
69007;BMP180;56061;51.748;19.620;2022-11-20T09:26:38;98447.60;;;-0.60
69007;BMP180;56061;51.748;19.620;2022-11-20T09:29:05;98451.60;;;-0.50
69007;BMP180;56061;51.748;19.620;2022-11-20T09:31:32;98452.80;;;-0.40
69007;BMP180;56061;51.748;19.620;2022-11-20T09:33:58;98452.40;;;-0.30
69007;BMP180;56061;51.748;19.620;2022-11-20T09:36:24;98454.80;;;-0.30
69007;BMP180;56061;51.748;19.620;2022-11-20T09:38:51;98445.60;;;-0.20
69007;BMP180;56061;51.748;19.620;2022-11-20T09:42:05;98448.20;;;-0.14
69007;BMP180;56061;51.748;19.620;2022-11-20T09:47:48;98443.80;;;0.00
69007;BMP180;56061;51.748;19.620;2022-11-20T09:50:33;98438.80;;;0.00
69007;BMP180;56061;51.748;19.620;2022-11-20T09:55:51;98443.20;;;0.10
69007;BMP180;56061;51.748;19.620;2022-11-20T09:58:43;98441.80;;;0.20
69007;BMP180;56061;51.748;19.620;2022-11-20T10:01:16;98430.20;;;0.30
69007;BMP180;56061;51.748;19.620;2022-11-20T10:04:11;98435.40;;;0.30
69007;BMP180;56061;51.748;19.620;2022-11-20T10:07:04;98434.20;;;0.38
69007;BMP180;56061;51.748;19.620;2022-11-20T10:09:58;98427.00;;;0.40
69007;BMP180;56061;51.748;19.620;2022-11-20T10:15:35;98423.40;;;0.50
69007;BMP180;56061;51.748;19.620;2022-11-20T10:18:31;98424.60;;;0.60
69007;BMP180;56061;51.748;19.620;2022-11-20T10:21:41;98420.00;;;0.60
69007;BMP180;56061;51.748;19.620;2022-11-20T10:24:43;98419.20;;;0.70
69007;BMP180;56061;51.748;19.620;2022-11-20T10:30:11;98416.20;;;0.80
69007;BMP180;56061;51.748;19.620;2022-11-20T10:32:52;98414.60;;;0.80
69007;BMP180;56061;51.748;19.620;2022-11-20T10:35:35;98416.60;;;0.84
69007;BMP180;56061;51.748;19.620;2022-11-20T10:38:14;98420.60;;;0.90
69007;BMP180;56061;51.748;19.620;2022-11-20T10:40:46;98413.80;;;0.90
69007;BMP180;56061;51.748;19.620;2022-11-20T10:43:34;98414.00;;;0.90
69007;BMP180;56061;51.748;19.620;2022-11-20T10:46:05;98410.40;;;1.00
69007;BMP180;56061;51.748;19.620;2022-11-20T10:48:37;98404.20;;;1.00
69007;BMP180;56061;51.748;19.620;2022-11-20T10:54:47;98410.20;;;1.00
69007;BMP180;56061;51.748;19.620;2022-11-20T11:00:33;98400.80;;;1.00
69007;BMP180;56061;51.748;19.620;2022-11-20T11:03:00;98399.60;;;1.00
69007;BMP180;56061;51.748;19.620;2022-11-20T11:05:53;98399.60;;;1.08
69007;BMP180;56061;51.748;19.620;2022-11-20T11:08:21;98397.20;;;1.10
69007;BMP180;56061;51.748;19.620;2022-11-20T11:10:58;98398.40;;;1.14
69007;BMP180;56061;51.748;19.620;2022-11-20T11:13:28;98402.60;;;1.20
69007;BMP180;56061;51.748;19.620;2022-11-20T11:15:56;98395.40;;;1.10
69007;BMP180;56061;51.748;19.620;2022-11-20T11:18:32;98391.80;;;1.10
69007;BMP180;56061;51.748;19.620;2022-11-20T11:21:01;98387.20;;;1.10
69007;BMP180;56061;51.748;19.620;2022-11-20T11:23:42;98381.80;;;1.10
69007;BMP180;56061;51.748;19.620;2022-11-20T11:26:23;98381.40;;;1.06
69007;BMP180;56061;51.748;19.620;2022-11-20T11:29:03;98373.20;;;1.10
69007;BMP180;56061;51.748;19.620;2022-11-20T11:31:33;98375.60;;;1.12
69007;BMP180;56061;51.748;19.620;2022-11-20T11:34:14;98377.00;;;1.20
69007;BMP180;56061;51.748;19.620;2022-11-20T11:36:51;98375.20;;;1.20
69007;BMP180;56061;51.748;19.620;2022-11-20T11:39:20;98373.80;;;1.28
69007;BMP180;56061;51.748;19.620;2022-11-20T11:41:49;98375.80;;;1.30
69007;BMP180;56061;51.748;19.620;2022-11-20T11:44:33;98370.60;;;1.40
69007;BMP180;56061;51.748;19.620;2022-11-20T11:47:31;98362.00;;;1.50
69007;BMP180;56061;51.748;19.620;2022-11-20T11:50:20;98358.00;;;1.56
69007;BMP180;56061;51.748;19.620;2022-11-20T11:53:09;98359.00;;;1.60
69007;BMP180;56061;51.748;19.620;2022-11-20T11:56:11;98353.40;;;1.70
69007;BMP180;56061;51.748;19.620;2022-11-20T11:58:47;98352.40;;;1.80
69007;BMP180;56061;51.748;19.620;2022-11-20T12:01:31;98353.40;;;1.90
69007;BMP180;56061;51.748;19.620;2022-11-20T12:04:44;98351.20;;;1.96
69007;BMP180;56061;51.748;19.620;2022-11-20T12:07:27;98352.80;;;2.06
69007;BMP180;56061;51.748;19.620;2022-11-20T12:13:15;98349.00;;;2.18
69007;BMP180;56061;51.748;19.620;2022-11-20T12:15:47;98343.40;;;2.20
69007;BMP180;56061;51.748;19.620;2022-11-20T12:18:22;98344.80;;;2.30
69007;BMP180;56061;51.748;19.620;2022-11-20T12:27:20;98336.40;;;2.30
69007;BMP180;56061;51.748;19.620;2022-11-20T12:30:08;98338.20;;;2.28
69007;BMP180;56061;51.748;19.620;2022-11-20T12:32:51;98329.20;;;2.20
69007;BMP180;56061;51.748;19.620;2022-11-20T12:45:21;98323.00;;;2.20
69007;BMP180;56061;51.748;19.620;2022-11-20T12:48:03;98311.40;;;2.20
69007;BMP180;56061;51.748;19.620;2022-11-20T12:50:56;98313.20;;;2.20
69007;BMP180;56061;51.748;19.620;2022-11-20T12:57:09;98301.60;;;2.20
69007;BMP180;56061;51.748;19.620;2022-11-20T12:59:58;98296.00;;;2.20
69007;BMP180;56061;51.748;19.620;2022-11-20T13:02:37;98294.60;;;2.20
69007;BMP180;56061;51.748;19.620;2022-11-20T13:05:21;98290.80;;;2.20
69007;BMP180;56061;51.748;19.620;2022-11-20T13:07:51;98283.00;;;2.16
69007;BMP180;56061;51.748;19.620;2022-11-20T13:13:18;98283.00;;;2.10
69007;BMP180;56061;51.748;19.620;2022-11-20T13:16:06;98281.80;;;2.12
69007;BMP180;56061;51.748;19.620;2022-11-20T13:18:41;98271.60;;;2.18
69007;BMP180;56061;51.748;19.620;2022-11-20T13:21:22;98270.40;;;2.10
69007;BMP180;56061;51.748;19.620;2022-11-20T13:23:49;98271.20;;;2.10
69007;BMP180;56061;51.748;19.620;2022-11-20T13:26:23;98275.80;;;2.10
69007;BMP180;56061;51.748;19.620;2022-11-20T13:29:24;98267.60;;;2.10
69007;BMP180;56061;51.748;19.620;2022-11-20T13:31:51;98267.20;;;2.02
69007;BMP180;56061;51.748;19.620;2022-11-20T13:34:26;98256.20;;;2.00
69007;BMP180;56061;51.748;19.620;2022-11-20T13:36:57;98256.20;;;2.00
69007;BMP180;56061;51.748;19.620;2022-11-20T13:39:31;98259.20;;;1.90
69007;BMP180;56061;51.748;19.620;2022-11-20T13:44:53;98262.60;;;1.60
69007;BMP180;56061;51.748;19.620;2022-11-20T13:47:24;98259.00;;;1.60
69007;BMP180;56061;51.748;19.620;2022-11-20T13:49:52;98259.40;;;1.50
69007;BMP180;56061;51.748;19.620;2022-11-20T13:52:55;98256.60;;;1.40
69007;BMP180;56061;51.748;19.620;2022-11-20T13:55:47;98256.80;;;1.38
69007;BMP180;56061;51.748;19.620;2022-11-20T13:59:10;98263.20;;;1.30
69007;BMP180;56061;51.748;19.620;2022-11-20T14:01:45;98256.00;;;1.10
69007;BMP180;56061;51.748;19.620;2022-11-20T14:04:38;98257.20;;;1.00
69007;BMP180;56061;51.748;19.620;2022-11-20T14:07:09;98255.60;;;1.00
69007;BMP180;56061;51.748;19.620;2022-11-20T14:09:36;98251.80;;;0.92
69007;BMP180;56061;51.748;19.620;2022-11-20T14:12:15;98249.80;;;0.90
69007;BMP180;56061;51.748;19.620;2022-11-20T14:14:52;98251.60;;;0.80
69007;BMP180;56061;51.748;19.620;2022-11-20T14:20:00;98247.80;;;0.70
69007;BMP180;56061;51.748;19.620;2022-11-20T14:22:28;98250.80;;;0.60
69007;BMP180;56061;51.748;19.620;2022-11-20T14:25:18;98248.80;;;0.60
69007;BMP180;56061;51.748;19.620;2022-11-20T14:27:57;98248.60;;;0.50
69007;BMP180;56061;51.748;19.620;2022-11-20T14:30:28;98249.40;;;0.44
69007;BMP180;56061;51.748;19.620;2022-11-20T14:33:02;98247.80;;;0.40
69007;BMP180;56061;51.748;19.620;2022-11-20T14:35:44;98250.00;;;0.30
69007;BMP180;56061;51.748;19.620;2022-11-20T14:38:16;98247.40;;;0.20
69007;BMP180;56061;51.748;19.620;2022-11-20T14:40:43;98240.00;;;0.10
69007;BMP180;56061;51.748;19.620;2022-11-20T14:43:26;98242.40;;;0.10
69007;BMP180;56061;51.748;19.620;2022-11-20T14:46:00;98237.80;;;0.00
69007;BMP180;56061;51.748;19.620;2022-11-20T14:48:38;98239.00;;;-0.02
69007;BMP180;56061;51.748;19.620;2022-11-20T14:51:05;98238.00;;;-0.10
69007;BMP180;56061;51.748;19.620;2022-11-20T14:53:31;98232.20;;;-0.20
69007;BMP180;56061;51.748;19.620;2022-11-20T14:56:01;98235.00;;;-0.22
69007;BMP180;56061;51.748;19.620;2022-11-20T14:58:33;98233.80;;;-0.30
69007;BMP180;56061;51.748;19.620;2022-11-20T15:01:06;98236.60;;;-0.40
69007;BMP180;56061;51.748;19.620;2022-11-20T15:03:40;98237.60;;;-0.50
69007;BMP180;56061;51.748;19.620;2022-11-20T15:06:11;98232.60;;;-0.50
69007;BMP180;56061;51.748;19.620;2022-11-20T15:08:38;98227.60;;;-0.60
69007;BMP180;56061;51.748;19.620;2022-11-20T15:11:19;98222.60;;;-0.70
69007;BMP180;56061;51.748;19.620;2022-11-20T15:13:46;98226.20;;;-0.70
69007;BMP180;56061;51.748;19.620;2022-11-20T15:16:20;98220.00;;;-0.80
69007;BMP180;56061;51.748;19.620;2022-11-20T15:18:47;98217.20;;;-0.90
69007;BMP180;56061;51.748;19.620;2022-11-20T15:21:17;98216.20;;;-1.00
69007;BMP180;56061;51.748;19.620;2022-11-20T15:23:44;98205.00;;;-1.06
69007;BMP180;56061;51.748;19.620;2022-11-20T15:26:14;98204.80;;;-1.12